sensor_id;sensor_type;location;lat;lon;timestamp;P1;durP1;ratioP1;P2;durP2;ratioP2
31336;SDS011;22846;42.654;23.314;2024-03-22T00:01:58;13.40;;;9.27;;
31336;SDS011;22846;42.654;23.314;2024-03-22T00:04:25;13.65;;;10.02;;
31336;SDS011;22846;42.654;23.314;2024-03-22T00:06:51;13.18;;;9.43;;
31336;SDS011;22846;42.654;23.314;2024-03-22T00:09:16;11.25;;;8.52;;
31336;SDS011;22846;42.654;23.314;2024-03-22T00:11:42;13.93;;;8.65;;
31336;SDS011;22846;42.654;23.314;2024-03-22T00:14:10;12.25;;;8.75;;
31336;SDS011;22846;42.654;23.314;2024-03-22T00:16:36;12.70;;;9.13;;
31336;SDS011;22846;42.654;23.314;2024-03-22T00:19:02;14.07;;;8.35;;
31336;SDS011;22846;42.654;23.314;2024-03-22T00:21:28;12.32;;;8.25;;
31336;SDS011;22846;42.654;23.314;2024-03-22T00:23:54;11.68;;;7.95;;
31336;SDS011;22846;42.654;23.314;2024-03-22T00:26:19;10.70;;;7.53;;
31336;SDS011;22846;42.654;23.314;2024-03-22T00:28:45;10.45;;;7.85;;
31336;SDS011;22846;42.654;23.314;2024-03-22T00:31:10;10.02;;;7.65;;
31336;SDS011;22846;42.654;23.314;2024-03-22T00:33:36;11.10;;;8.35;;
31336;SDS011;22846;42.654;23.314;2024-03-22T00:36:01;9.95;;;7.32;;
31336;SDS011;22846;42.654;23.314;2024-03-22T00:38:27;10.30;;;7.57;;
31336;SDS011;22846;42.654;23.314;2024-03-22T00:40:53;10.02;;;7.10;;
31336;SDS011;22846;42.654;23.314;2024-03-22T00:43:19;9.85;;;6.97;;
31336;SDS011;22846;42.654;23.314;2024-03-22T00:45:45;9.55;;;6.63;;
31336;SDS011;22846;42.654;23.314;2024-03-22T00:48:11;8.90;;;6.78;;
31336;SDS011;22846;42.654;23.314;2024-03-22T00:50:36;9.15;;;6.78;;
31336;SDS011;22846;42.654;23.314;2024-03-22T00:53:01;8.73;;;6.70;;
31336;SDS011;22846;42.654;23.314;2024-03-22T00:55:31;11.07;;;7.43;;
31336;SDS011;22846;42.654;23.314;2024-03-22T00:57:57;9.05;;;6.05;;
31336;SDS011;22846;42.654;23.314;2024-03-22T01:00:22;9.95;;;6.75;;
31336;SDS011;22846;42.654;23.314;2024-03-22T01:02:49;8.68;;;6.05;;
31336;SDS011;22846;42.654;23.314;2024-03-22T01:05:15;8.82;;;6.05;;
31336;SDS011;22846;42.654;23.314;2024-03-22T01:07:41;8.52;;;6.22;;
31336;SDS011;22846;42.654;23.314;2024-03-22T01:10:06;9.07;;;6.07;;
31336;SDS011;22846;42.654;23.314;2024-03-22T01:12:32;6.82;;;5.53;;
31336;SDS011;22846;42.654;23.314;2024-03-22T01:14:57;7.40;;;5.70;;
31336;SDS011;22846;42.654;23.314;2024-03-22T01:17:23;7.78;;;5.57;;
31336;SDS011;22846;42.654;23.314;2024-03-22T01:19:49;8.65;;;5.72;;
31336;SDS011;22846;42.654;23.314;2024-03-22T01:22:15;7.78;;;5.68;;
31336;SDS011;22846;42.654;23.314;2024-03-22T01:24:42;6.63;;;5.32;;
31336;SDS011;22846;42.654;23.314;2024-03-22T01:27:07;6.93;;;5.47;;
31336;SDS011;22846;42.654;23.314;2024-03-22T01:29:32;7.30;;;5.03;;
31336;SDS011;22846;42.654;23.314;2024-03-22T01:31:58;6.53;;;5.03;;
31336;SDS011;22846;42.654;23.314;2024-03-22T01:34:24;7.38;;;5.38;;
31336;SDS011;22846;42.654;23.314;2024-03-22T01:36:49;7.32;;;4.95;;
31336;SDS011;22846;42.654;23.314;2024-03-22T01:39:15;8.02;;;5.00;;
31336;SDS011;22846;42.654;23.314;2024-03-22T01:41:42;6.80;;;4.90;;
31336;SDS011;22846;42.654;23.314;2024-03-22T01:44:08;6.30;;;5.00;;
31336;SDS011;22846;42.654;23.314;2024-03-22T01:46:33;6.20;;;4.95;;
31336;SDS011;22846;42.654;23.314;2024-03-22T01:49:00;5.88;;;4.50;;
31336;SDS011;22846;42.654;23.314;2024-03-22T01:51:25;6.28;;;4.65;;
31336;SDS011;22846;42.654;23.314;2024-03-22T01:53:51;7.38;;;5.20;;
31336;SDS011;22846;42.654;23.314;2024-03-22T01:56:18;5.82;;;4.50;;
31336;SDS011;22846;42.654;23.314;2024-03-22T01:58:44;6.13;;;4.53;;
31336;SDS011;22846;42.654;23.314;2024-03-22T02:01:10;9.15;;;4.50;;
31336;SDS011;22846;42.654;23.314;2024-03-22T02:03:36;5.95;;;4.38;;
31336;SDS011;22846;42.654;23.314;2024-03-22T02:06:01;6.68;;;4.78;;
31336;SDS011;22846;42.654;23.314;2024-03-22T02:08:27;6.30;;;4.50;;
31336;SDS011;22846;42.654;23.314;2024-03-22T02:10:53;5.93;;;4.45;;
31336;SDS011;22846;42.654;23.314;2024-03-22T02:13:18;5.85;;;4.40;;
31336;SDS011;22846;42.654;23.314;2024-03-22T02:15:44;5.88;;;3.88;;
31336;SDS011;22846;42.654;23.314;2024-03-22T02:18:09;5.53;;;4.45;;
31336;SDS011;22846;42.654;23.314;2024-03-22T02:20:34;4.82;;;4.03;;
31336;SDS011;22846;42.654;23.314;2024-03-22T02:23:00;5.18;;;3.97;;
31336;SDS011;22846;42.654;23.314;2024-03-22T02:25:25;5.18;;;4.10;;
31336;SDS011;22846;42.654;23.314;2024-03-22T02:27:51;5.10;;;4.05;;
31336;SDS011;22846;42.654;23.314;2024-03-22T02:30:17;5.35;;;3.85;;
31336;SDS011;22846;42.654;23.314;2024-03-22T02:32:42;5.88;;;4.03;;
31336;SDS011;22846;42.654;23.314;2024-03-22T02:35:08;5.05;;;3.67;;
31336;SDS011;22846;42.654;23.314;2024-03-22T02:37:33;4.28;;;3.60;;
31336;SDS011;22846;42.654;23.314;2024-03-22T02:39:59;4.72;;;3.55;;
31336;SDS011;22846;42.654;23.314;2024-03-22T02:42:24;4.53;;;3.58;;
31336;SDS011;22846;42.654;23.314;2024-03-22T02:44:50;4.72;;;3.30;;
31336;SDS011;22846;42.654;23.314;2024-03-22T02:47:15;4.32;;;3.47;;
31336;SDS011;22846;42.654;23.314;2024-03-22T02:49:41;4.20;;;3.58;;
31336;SDS011;22846;42.654;23.314;2024-03-22T02:52:06;5.68;;;3.50;;
31336;SDS011;22846;42.654;23.314;2024-03-22T02:54:31;4.63;;;3.42;;
31336;SDS011;22846;42.654;23.314;2024-03-22T02:56:57;4.70;;;3.55;;
31336;SDS011;22846;42.654;23.314;2024-03-22T02:59:25;6.30;;;3.60;;
31336;SDS011;22846;42.654;23.314;2024-03-22T03:01:51;3.38;;;2.92;;
31336;SDS011;22846;42.654;23.314;2024-03-22T03:04:17;4.38;;;3.30;;
31336;SDS011;22846;42.654;23.314;2024-03-22T03:06:42;3.35;;;2.90;;
31336;SDS011;22846;42.654;23.314;2024-03-22T03:09:07;3.85;;;3.15;;
31336;SDS011;22846;42.654;23.314;2024-03-22T03:11:35;3.72;;;2.80;;
31336;SDS011;22846;42.654;23.314;2024-03-22T03:14:01;3.85;;;3.10;;
31336;SDS011;22846;42.654;23.314;2024-03-22T03:16:26;4.10;;;3.05;;
31336;SDS011;22846;42.654;23.314;2024-03-22T03:18:52;5.28;;;3.85;;
31336;SDS011;22846;42.654;23.314;2024-03-22T03:21:17;4.80;;;3.33;;
31336;SDS011;22846;42.654;23.314;2024-03-22T03:23:43;4.30;;;2.75;;
31336;SDS011;22846;42.654;23.314;2024-03-22T03:26:08;3.70;;;3.05;;
31336;SDS011;22846;42.654;23.314;2024-03-22T03:28:33;4.38;;;3.10;;
31336;SDS011;22846;42.654;23.314;2024-03-22T03:30:59;4.03;;;3.10;;
31336;SDS011;22846;42.654;23.314;2024-03-22T03:33:24;3.42;;;2.78;;
31336;SDS011;22846;42.654;23.314;2024-03-22T03:35:49;4.97;;;2.85;;
31336;SDS011;22846;42.654;23.314;2024-03-22T03:38:15;4.55;;;3.30;;
31336;SDS011;22846;42.654;23.314;2024-03-22T03:40:40;3.70;;;3.10;;
31336;SDS011;22846;42.654;23.314;2024-03-22T03:43:06;3.22;;;2.80;;
31336;SDS011;22846;42.654;23.314;2024-03-22T03:45:31;3.90;;;2.97;;
31336;SDS011;22846;42.654;23.314;2024-03-22T03:47:56;4.35;;;3.20;;
31336;SDS011;22846;42.654;23.314;2024-03-22T03:50:22;5.53;;;2.72;;
31336;SDS011;22846;42.654;23.314;2024-03-22T03:52:47;3.30;;;2.80;;
31336;SDS011;22846;42.654;23.314;2024-03-22T03:55:12;4.05;;;2.88;;
31336;SDS011;22846;42.654;23.314;2024-03-22T03:57:38;3.58;;;2.92;;
31336;SDS011;22846;42.654;23.314;2024-03-22T04:00:03;4.10;;;2.75;;
31336;SDS011;22846;42.654;23.314;2024-03-22T04:02:29;4.10;;;2.90;;
31336;SDS011;22846;42.654;23.314;2024-03-22T04:04:55;3.83;;;2.92;;
31336;SDS011;22846;42.654;23.314;2024-03-22T04:07:20;4.07;;;2.92;;
31336;SDS011;22846;42.654;23.314;2024-03-22T04:09:46;4.10;;;3.00;;
31336;SDS011;22846;42.654;23.314;2024-03-22T04:12:12;3.58;;;2.80;;
31336;SDS011;22846;42.654;23.314;2024-03-22T04:14:37;3.17;;;2.70;;
31336;SDS011;22846;42.654;23.314;2024-03-22T04:17:03;3.50;;;2.80;;
31336;SDS011;22846;42.654;23.314;2024-03-22T04:19:28;3.22;;;2.70;;
31336;SDS011;22846;42.654;23.314;2024-03-22T04:21:54;3.78;;;2.88;;
31336;SDS011;22846;42.654;23.314;2024-03-22T04:24:19;3.67;;;2.83;;
31336;SDS011;22846;42.654;23.314;2024-03-22T04:26:44;4.15;;;2.78;;
31336;SDS011;22846;42.654;23.314;2024-03-22T04:29:10;4.45;;;2.65;;
31336;SDS011;22846;42.654;23.314;2024-03-22T04:31:35;4.57;;;3.10;;
31336;SDS011;22846;42.654;23.314;2024-03-22T04:34:00;3.50;;;2.50;;
31336;SDS011;22846;42.654;23.314;2024-03-22T04:36:27;4.15;;;3.15;;
31336;SDS011;22846;42.654;23.314;2024-03-22T04:38:52;3.25;;;2.53;;
31336;SDS011;22846;42.654;23.314;2024-03-22T04:41:18;3.72;;;2.92;;
31336;SDS011;22846;42.654;23.314;2024-03-22T04:43:43;3.63;;;2.60;;
31336;SDS011;22846;42.654;23.314;2024-03-22T04:46:08;3.10;;;2.22;;
31336;SDS011;22846;42.654;23.314;2024-03-22T04:48:34;3.03;;;2.38;;
31336;SDS011;22846;42.654;23.314;2024-03-22T04:50:59;2.60;;;2.30;;
31336;SDS011;22846;42.654;23.314;2024-03-22T04:53:25;3.20;;;2.40;;
31336;SDS011;22846;42.654;23.314;2024-03-22T04:55:50;3.30;;;2.50;;
31336;SDS011;22846;42.654;23.314;2024-03-22T04:58:17;3.08;;;2.47;;
31336;SDS011;22846;42.654;23.314;2024-03-22T05:00:43;3.20;;;2.38;;
31336;SDS011;22846;42.654;23.314;2024-03-22T05:03:09;3.00;;;2.30;;
31336;SDS011;22846;42.654;23.314;2024-03-22T05:05:35;3.67;;;2.45;;
31336;SDS011;22846;42.654;23.314;2024-03-22T05:08:01;2.60;;;2.10;;
31336;SDS011;22846;42.654;23.314;2024-03-22T05:10:27;2.30;;;2.10;;
31336;SDS011;22846;42.654;23.314;2024-03-22T05:12:54;3.05;;;2.08;;
31336;SDS011;22846;42.654;23.314;2024-03-22T05:15:20;2.47;;;2.10;;
31336;SDS011;22846;42.654;23.314;2024-03-22T05:17:45;3.17;;;2.40;;
31336;SDS011;22846;42.654;23.314;2024-03-22T05:20:10;3.47;;;2.67;;
31336;SDS011;22846;42.654;23.314;2024-03-22T05:22:37;3.10;;;2.20;;
31336;SDS011;22846;42.654;23.314;2024-03-22T05:25:02;2.85;;;2.05;;
31336;SDS011;22846;42.654;23.314;2024-03-22T05:27:28;6.00;;;2.40;;
31336;SDS011;22846;42.654;23.314;2024-03-22T05:29:56;6.10;;;2.33;;
31336;SDS011;22846;42.654;23.314;2024-03-22T05:32:21;9.45;;;3.72;;
31336;SDS011;22846;42.654;23.314;2024-03-22T05:34:46;12.07;;;5.97;;
31336;SDS011;22846;42.654;23.314;2024-03-22T05:37:12;11.45;;;5.50;;
31336;SDS011;22846;42.654;23.314;2024-03-22T05:39:37;14.38;;;5.72;;
31336;SDS011;22846;42.654;23.314;2024-03-22T05:42:04;19.73;;;8.00;;
31336;SDS011;22846;42.654;23.314;2024-03-22T05:44:30;18.20;;;6.80;;
31336;SDS011;22846;42.654;23.314;2024-03-22T05:46:55;16.05;;;7.50;;
31336;SDS011;22846;42.654;23.314;2024-03-22T05:49:20;13.25;;;5.95;;
31336;SDS011;22846;42.654;23.314;2024-03-22T05:51:46;12.15;;;5.45;;
31336;SDS011;22846;42.654;23.314;2024-03-22T05:54:11;12.75;;;5.10;;
31336;SDS011;22846;42.654;23.314;2024-03-22T05:56:37;9.07;;;5.20;;
31336;SDS011;22846;42.654;23.314;2024-03-22T05:59:02;8.73;;;5.03;;
31336;SDS011;22846;42.654;23.314;2024-03-22T06:01:28;9.00;;;4.70;;
31336;SDS011;22846;42.654;23.314;2024-03-22T06:03:53;11.65;;;5.20;;
31336;SDS011;22846;42.654;23.314;2024-03-22T06:06:19;11.20;;;4.70;;
31336;SDS011;22846;42.654;23.314;2024-03-22T06:08:47;10.68;;;4.88;;
31336;SDS011;22846;42.654;23.314;2024-03-22T06:11:17;16.95;;;5.53;;
31336;SDS011;22846;42.654;23.314;2024-03-22T06:13:42;8.25;;;4.40;;
31336;SDS011;22846;42.654;23.314;2024-03-22T06:16:08;9.05;;;4.50;;
31336;SDS011;22846;42.654;23.314;2024-03-22T06:18:33;7.05;;;5.00;;
31336;SDS011;22846;42.654;23.314;2024-03-22T06:20:58;9.40;;;4.65;;
31336;SDS011;22846;42.654;23.314;2024-03-22T06:23:24;10.45;;;4.38;;
31336;SDS011;22846;42.654;23.314;2024-03-22T06:25:53;8.57;;;4.20;;
31336;SDS011;22846;42.654;23.314;2024-03-22T06:28:19;10.50;;;4.32;;
31336;SDS011;22846;42.654;23.314;2024-03-22T06:30:44;8.35;;;4.13;;
31336;SDS011;22846;42.654;23.314;2024-03-22T06:33:10;6.95;;;3.90;;
31336;SDS011;22846;42.654;23.314;2024-03-22T06:35:35;6.40;;;4.22;;
31336;SDS011;22846;42.654;23.314;2024-03-22T06:38:00;6.43;;;3.92;;
31336;SDS011;22846;42.654;23.314;2024-03-22T06:40:28;7.65;;;3.72;;
31336;SDS011;22846;42.654;23.314;2024-03-22T06:42:53;5.13;;;3.78;;
31336;SDS011;22846;42.654;23.314;2024-03-22T06:45:19;5.60;;;3.78;;
31336;SDS011;22846;42.654;23.314;2024-03-22T06:47:45;7.25;;;3.78;;
31336;SDS011;22846;42.654;23.314;2024-03-22T06:50:10;5.80;;;3.45;;
31336;SDS011;22846;42.654;23.314;2024-03-22T06:52:36;4.60;;;3.15;;
31336;SDS011;22846;42.654;23.314;2024-03-22T06:55:01;6.20;;;3.50;;
31336;SDS011;22846;42.654;23.314;2024-03-22T06:57:28;5.00;;;2.85;;
31336;SDS011;22846;42.654;23.314;2024-03-22T06:59:53;5.13;;;3.10;;
31336;SDS011;22846;42.654;23.314;2024-03-22T07:02:18;4.50;;;2.92;;
31336;SDS011;22846;42.654;23.314;2024-03-22T07:04:44;3.78;;;3.05;;
31336;SDS011;22846;42.654;23.314;2024-03-22T07:07:09;5.55;;;3.20;;
31336;SDS011;22846;42.654;23.314;2024-03-22T07:09:35;4.40;;;2.80;;
31336;SDS011;22846;42.654;23.314;2024-03-22T07:12:01;3.63;;;2.83;;
31336;SDS011;22846;42.654;23.314;2024-03-22T07:14:26;4.28;;;2.70;;
31336;SDS011;22846;42.654;23.314;2024-03-22T07:16:51;4.30;;;2.75;;
31336;SDS011;22846;42.654;23.314;2024-03-22T07:19:19;3.28;;;2.55;;
31336;SDS011;22846;42.654;23.314;2024-03-22T07:21:46;3.58;;;2.60;;
31336;SDS011;22846;42.654;23.314;2024-03-22T07:24:11;5.15;;;2.88;;
31336;SDS011;22846;42.654;23.314;2024-03-22T07:26:37;4.95;;;3.00;;
31336;SDS011;22846;42.654;23.314;2024-03-22T07:29:02;4.72;;;3.13;;
31336;SDS011;22846;42.654;23.314;2024-03-22T07:31:28;4.45;;;2.70;;
31336;SDS011;22846;42.654;23.314;2024-03-22T07:33:53;3.45;;;2.67;;
31336;SDS011;22846;42.654;23.314;2024-03-22T07:36:19;5.65;;;2.90;;
31336;SDS011;22846;42.654;23.314;2024-03-22T07:38:44;4.47;;;2.83;;
31336;SDS011;22846;42.654;23.314;2024-03-22T07:41:10;3.17;;;2.13;;
31336;SDS011;22846;42.654;23.314;2024-03-22T07:43:36;3.55;;;2.53;;
31336;SDS011;22846;42.654;23.314;2024-03-22T07:46:01;5.25;;;2.72;;
31336;SDS011;22846;42.654;23.314;2024-03-22T07:48:26;3.50;;;2.65;;
31336;SDS011;22846;42.654;23.314;2024-03-22T07:50:58;4.22;;;2.80;;
31336;SDS011;22846;42.654;23.314;2024-03-22T07:53:24;4.43;;;2.47;;
31336;SDS011;22846;42.654;23.314;2024-03-22T07:55:50;3.67;;;2.75;;
31336;SDS011;22846;42.654;23.314;2024-03-22T07:58:15;2.85;;;2.25;;
31336;SDS011;22846;42.654;23.314;2024-03-22T08:00:41;3.30;;;2.78;;
31336;SDS011;22846;42.654;23.314;2024-03-22T08:03:06;3.47;;;2.53;;
31336;SDS011;22846;42.654;23.314;2024-03-22T08:05:32;3.60;;;2.50;;
31336;SDS011;22846;42.654;23.314;2024-03-22T08:07:58;3.85;;;2.88;;
31336;SDS011;22846;42.654;23.314;2024-03-22T08:10:23;3.05;;;2.28;;
31336;SDS011;22846;42.654;23.314;2024-03-22T08:12:49;5.13;;;2.65;;
31336;SDS011;22846;42.654;23.314;2024-03-22T08:15:14;3.75;;;2.33;;
31336;SDS011;22846;42.654;23.314;2024-03-22T08:17:40;3.28;;;2.47;;
31336;SDS011;22846;42.654;23.314;2024-03-22T08:20:06;4.43;;;2.63;;
31336;SDS011;22846;42.654;23.314;2024-03-22T08:22:31;3.67;;;2.42;;
31336;SDS011;22846;42.654;23.314;2024-03-22T08:24:57;3.50;;;2.33;;
31336;SDS011;22846;42.654;23.314;2024-03-22T08:27:22;4.97;;;2.53;;
31336;SDS011;22846;42.654;23.314;2024-03-22T08:29:48;3.60;;;2.45;;
31336;SDS011;22846;42.654;23.314;2024-03-22T08:32:13;4.32;;;2.45;;
31336;SDS011;22846;42.654;23.314;2024-03-22T08:34:38;3.42;;;2.17;;
31336;SDS011;22846;42.654;23.314;2024-03-22T08:37:04;2.63;;;2.20;;
31336;SDS011;22846;42.654;23.314;2024-03-22T08:39:30;3.72;;;2.35;;
31336;SDS011;22846;42.654;23.314;2024-03-22T08:41:55;2.78;;;2.28;;
31336;SDS011;22846;42.654;23.314;2024-03-22T08:44:22;2.75;;;2.00;;
31336;SDS011;22846;42.654;23.314;2024-03-22T08:46:47;4.15;;;2.70;;
31336;SDS011;22846;42.654;23.314;2024-03-22T08:49:14;2.92;;;2.20;;
31336;SDS011;22846;42.654;23.314;2024-03-22T08:51:39;3.08;;;2.10;;
31336;SDS011;22846;42.654;23.314;2024-03-22T08:54:05;2.83;;;2.10;;
31336;SDS011;22846;42.654;23.314;2024-03-22T08:56:30;2.22;;;1.83;;
31336;SDS011;22846;42.654;23.314;2024-03-22T08:58:55;2.72;;;2.03;;
31336;SDS011;22846;42.654;23.314;2024-03-22T09:01:21;2.80;;;2.13;;
31336;SDS011;22846;42.654;23.314;2024-03-22T09:03:47;2.58;;;1.88;;
31336;SDS011;22846;42.654;23.314;2024-03-22T09:06:14;2.92;;;2.20;;
31336;SDS011;22846;42.654;23.314;2024-03-22T09:08:40;2.28;;;1.98;;
31336;SDS011;22846;42.654;23.314;2024-03-22T09:11:05;2.33;;;1.80;;
31336;SDS011;22846;42.654;23.314;2024-03-22T09:13:31;2.65;;;1.95;;
31336;SDS011;22846;42.654;23.314;2024-03-22T09:15:57;2.30;;;2.10;;
31336;SDS011;22846;42.654;23.314;2024-03-22T09:18:23;3.28;;;2.10;;
31336;SDS011;22846;42.654;23.314;2024-03-22T09:20:49;2.78;;;1.80;;
31336;SDS011;22846;42.654;23.314;2024-03-22T09:23:14;2.55;;;2.00;;
31336;SDS011;22846;42.654;23.314;2024-03-22T09:25:40;2.70;;;1.90;;
31336;SDS011;22846;42.654;23.314;2024-03-22T09:28:05;2.70;;;2.13;;
31336;SDS011;22846;42.654;23.314;2024-03-22T09:30:31;2.40;;;1.90;;
31336;SDS011;22846;42.654;23.314;2024-03-22T09:32:56;2.00;;;1.60;;
31336;SDS011;22846;42.654;23.314;2024-03-22T09:35:21;2.45;;;1.92;;
31336;SDS011;22846;42.654;23.314;2024-03-22T09:37:47;1.98;;;1.60;;
31336;SDS011;22846;42.654;23.314;2024-03-22T09:40:12;2.83;;;1.95;;
31336;SDS011;22846;42.654;23.314;2024-03-22T09:42:38;1.50;;;1.40;;
31336;SDS011;22846;42.654;23.314;2024-03-22T09:45:07;2.47;;;1.80;;
31336;SDS011;22846;42.654;23.314;2024-03-22T09:47:33;2.20;;;1.90;;
31336;SDS011;22846;42.654;23.314;2024-03-22T09:49:59;2.55;;;1.77;;
31336;SDS011;22846;42.654;23.314;2024-03-22T09:52:26;2.60;;;1.90;;
31336;SDS011;22846;42.654;23.314;2024-03-22T09:54:52;2.63;;;1.83;;
31336;SDS011;22846;42.654;23.314;2024-03-22T09:57:18;2.28;;;1.70;;
31336;SDS011;22846;42.654;23.314;2024-03-22T09:59:44;2.03;;;1.70;;
31336;SDS011;22846;42.654;23.314;2024-03-22T10:02:11;2.03;;;1.65;;
31336;SDS011;22846;42.654;23.314;2024-03-22T10:04:37;2.17;;;1.90;;
31336;SDS011;22846;42.654;23.314;2024-03-22T10:07:03;3.38;;;2.00;;
31336;SDS011;22846;42.654;23.314;2024-03-22T10:09:29;2.60;;;1.90;;
31336;SDS011;22846;42.654;23.314;2024-03-22T10:11:55;2.45;;;1.75;;
31336;SDS011;22846;42.654;23.314;2024-03-22T10:14:21;3.35;;;1.92;;
31336;SDS011;22846;42.654;23.314;2024-03-22T10:16:50;2.83;;;2.10;;
31336;SDS011;22846;42.654;23.314;2024-03-22T10:19:18;2.75;;;1.98;;
31336;SDS011;22846;42.654;23.314;2024-03-22T10:21:44;2.53;;;1.60;;
31336;SDS011;22846;42.654;23.314;2024-03-22T10:24:09;1.98;;;1.75;;
31336;SDS011;22846;42.654;23.314;2024-03-22T10:26:35;2.08;;;1.75;;
31336;SDS011;22846;42.654;23.314;2024-03-22T10:29:01;2.22;;;1.80;;
31336;SDS011;22846;42.654;23.314;2024-03-22T10:31:31;2.03;;;1.65;;
31336;SDS011;22846;42.654;23.314;2024-03-22T10:33:57;2.15;;;1.58;;
31336;SDS011;22846;42.654;23.314;2024-03-22T10:36:23;2.38;;;1.92;;
31336;SDS011;22846;42.654;23.314;2024-03-22T10:38:51;2.10;;;1.70;;
31336;SDS011;22846;42.654;23.314;2024-03-22T10:41:19;1.92;;;1.60;;
31336;SDS011;22846;42.654;23.314;2024-03-22T10:43:45;1.98;;;1.60;;
31336;SDS011;22846;42.654;23.314;2024-03-22T10:46:10;2.00;;;1.60;;
31336;SDS011;22846;42.654;23.314;2024-03-22T10:48:37;2.00;;;1.40;;
31336;SDS011;22846;42.654;23.314;2024-03-22T10:51:03;2.30;;;1.77;;
31336;SDS011;22846;42.654;23.314;2024-03-22T10:53:30;1.83;;;1.55;;
31336;SDS011;22846;42.654;23.314;2024-03-22T10:55:57;1.67;;;1.58;;
31336;SDS011;22846;42.654;23.314;2024-03-22T10:58:25;1.73;;;1.40;;
31336;SDS011;22846;42.654;23.314;2024-03-22T11:00:56;2.60;;;1.40;;
31336;SDS011;22846;42.654;23.314;2024-03-22T11:03:23;1.70;;;1.40;;
31336;SDS011;22846;42.654;23.314;2024-03-22T11:05:50;1.73;;;1.42;;
31336;SDS011;22846;42.654;23.314;2024-03-22T11:08:26;2.03;;;1.60;;
31336;SDS011;22846;42.654;23.314;2024-03-22T11:10:55;1.50;;;1.40;;
31336;SDS011;22846;42.654;23.314;2024-03-22T11:13:22;2.08;;;1.50;;
31336;SDS011;22846;42.654;23.314;2024-03-22T11:15:48;2.20;;;1.40;;
31336;SDS011;22846;42.654;23.314;2024-03-22T11:18:16;1.50;;;1.30;;
31336;SDS011;22846;42.654;23.314;2024-03-22T11:20:42;1.80;;;1.40;;
31336;SDS011;22846;42.654;23.314;2024-03-22T11:23:08;2.15;;;1.58;;
31336;SDS011;22846;42.654;23.314;2024-03-22T11:25:34;1.67;;;1.33;;
31336;SDS011;22846;42.654;23.314;2024-03-22T11:28:00;1.98;;;1.52;;
31336;SDS011;22846;42.654;23.314;2024-03-22T11:30:27;1.92;;;1.40;;
31336;SDS011;22846;42.654;23.314;2024-03-22T11:32:54;1.63;;;1.40;;
31336;SDS011;22846;42.654;23.314;2024-03-22T11:35:19;1.83;;;1.63;;
31336;SDS011;22846;42.654;23.314;2024-03-22T11:37:45;1.92;;;1.40;;
31336;SDS011;22846;42.654;23.314;2024-03-22T11:40:10;1.48;;;1.25;;
31336;SDS011;22846;42.654;23.314;2024-03-22T11:42:38;1.40;;;1.30;;
31336;SDS011;22846;42.654;23.314;2024-03-22T11:45:05;1.67;;;1.30;;
31336;SDS011;22846;42.654;23.314;2024-03-22T11:47:33;1.92;;;1.42;;
31336;SDS011;22846;42.654;23.314;2024-03-22T11:49:59;1.33;;;1.17;;
31336;SDS011;22846;42.654;23.314;2024-03-22T11:52:25;1.40;;;1.30;;
31336;SDS011;22846;42.654;23.314;2024-03-22T11:54:51;1.73;;;1.30;;
31336;SDS011;22846;42.654;23.314;2024-03-22T11:57:18;1.52;;;1.40;;
31336;SDS011;22846;42.654;23.314;2024-03-22T11:59:46;1.58;;;1.27;;
31336;SDS011;22846;42.654;23.314;2024-03-22T12:02:11;1.83;;;1.30;;
31336;SDS011;22846;42.654;23.314;2024-03-22T12:04:47;1.10;;;1.00;;
31336;SDS011;22846;42.654;23.314;2024-03-22T12:07:13;1.80;;;1.30;;
31336;SDS011;22846;42.654;23.314;2024-03-22T12:09:42;1.40;;;1.15;;
31336;SDS011;22846;42.654;23.314;2024-03-22T12:12:08;1.50;;;1.25;;
31336;SDS011;22846;42.654;23.314;2024-03-22T12:14:35;2.72;;;1.45;;
31336;SDS011;22846;42.654;23.314;2024-03-22T12:17:04;1.35;;;1.20;;
31336;SDS011;22846;42.654;23.314;2024-03-22T12:19:30;1.88;;;1.20;;
31336;SDS011;22846;42.654;23.314;2024-03-22T12:21:55;1.90;;;1.35;;
31336;SDS011;22846;42.654;23.314;2024-03-22T12:24:21;1.63;;;1.42;;
31336;SDS011;22846;42.654;23.314;2024-03-22T12:26:47;1.30;;;1.20;;
31336;SDS011;22846;42.654;23.314;2024-03-22T12:29:15;1.33;;;1.20;;
31336;SDS011;22846;42.654;23.314;2024-03-22T12:31:41;1.10;;;1.00;;
31336;SDS011;22846;42.654;23.314;2024-03-22T12:34:07;1.35;;;1.20;;
31336;SDS011;22846;42.654;23.314;2024-03-22T12:36:33;1.77;;;1.25;;
31336;SDS011;22846;42.654;23.314;2024-03-22T12:38:58;1.48;;;1.23;;
31336;SDS011;22846;42.654;23.314;2024-03-22T12:41:24;1.63;;;1.30;;
31336;SDS011;22846;42.654;23.314;2024-03-22T12:43:50;1.73;;;1.20;;
31336;SDS011;22846;42.654;23.314;2024-03-22T12:46:15;2.00;;;1.40;;
31336;SDS011;22846;42.654;23.314;2024-03-22T12:48:41;1.77;;;1.10;;
31336;SDS011;22846;42.654;23.314;2024-03-22T12:51:06;1.33;;;1.02;;
31336;SDS011;22846;42.654;23.314;2024-03-22T12:53:32;1.80;;;1.20;;
31336;SDS011;22846;42.654;23.314;2024-03-22T12:55:57;1.70;;;1.08;;
31336;SDS011;22846;42.654;23.314;2024-03-22T12:58:22;2.55;;;1.10;;
31336;SDS011;22846;42.654;23.314;2024-03-22T13:00:48;1.10;;;0.95;;
31336;SDS011;22846;42.654;23.314;2024-03-22T13:03:13;2.20;;;1.10;;
31336;SDS011;22846;42.654;23.314;2024-03-22T13:05:40;1.30;;;1.02;;
31336;SDS011;22846;42.654;23.314;2024-03-22T13:08:06;1.20;;;1.10;;
31336;SDS011;22846;42.654;23.314;2024-03-22T13:10:32;1.45;;;1.05;;
31336;SDS011;22846;42.654;23.314;2024-03-22T13:12:57;1.30;;;1.10;;
31336;SDS011;22846;42.654;23.314;2024-03-22T13:15:23;1.75;;;1.10;;
31336;SDS011;22846;42.654;23.314;2024-03-22T13:17:49;1.20;;;1.10;;
31336;SDS011;22846;42.654;23.314;2024-03-22T13:20:14;1.20;;;1.00;;
31336;SDS011;22846;42.654;23.314;2024-03-22T13:22:43;1.30;;;1.20;;
31336;SDS011;22846;42.654;23.314;2024-03-22T13:25:09;1.30;;;1.20;;
31336;SDS011;22846;42.654;23.314;2024-03-22T13:27:35;1.40;;;1.10;;
31336;SDS011;22846;42.654;23.314;2024-03-22T13:30:03;0.88;;;0.88;;
31336;SDS011;22846;42.654;23.314;2024-03-22T13:32:30;1.25;;;0.93;;
31336;SDS011;22846;42.654;23.314;2024-03-22T13:34:56;1.25;;;1.05;;
31336;SDS011;22846;42.654;23.314;2024-03-22T13:37:21;1.60;;;1.23;;
31336;SDS011;22846;42.654;23.314;2024-03-22T13:39:49;1.50;;;1.00;;
31336;SDS011;22846;42.654;23.314;2024-03-22T13:42:15;0.93;;;0.90;;
31336;SDS011;22846;42.654;23.314;2024-03-22T13:44:41;1.10;;;1.00;;
31336;SDS011;22846;42.654;23.314;2024-03-22T13:47:07;1.10;;;1.00;;
31336;SDS011;22846;42.654;23.314;2024-03-22T13:49:33;1.20;;;1.00;;
31336;SDS011;22846;42.654;23.314;2024-03-22T13:51:58;1.25;;;0.90;;
31336;SDS011;22846;42.654;23.314;2024-03-22T13:54:24;0.90;;;0.80;;
31336;SDS011;22846;42.654;23.314;2024-03-22T13:56:50;1.10;;;1.00;;
31336;SDS011;22846;42.654;23.314;2024-03-22T13:59:15;1.15;;;1.05;;
31336;SDS011;22846;42.654;23.314;2024-03-22T14:01:41;1.13;;;1.02;;
31336;SDS011;22846;42.654;23.314;2024-03-22T14:04:10;1.77;;;1.00;;
31336;SDS011;22846;42.654;23.314;2024-03-22T14:06:36;1.42;;;0.90;;
31336;SDS011;22846;42.654;23.314;2024-03-22T14:09:02;1.10;;;0.90;;
31336;SDS011;22846;42.654;23.314;2024-03-22T14:11:29;1.25;;;0.90;;
31336;SDS011;22846;42.654;23.314;2024-03-22T14:13:59;1.30;;;0.88;;
31336;SDS011;22846;42.654;23.314;2024-03-22T14:16:25;1.30;;;1.08;;
31336;SDS011;22846;42.654;23.314;2024-03-22T14:18:50;1.95;;;1.05;;
31336;SDS011;22846;42.654;23.314;2024-03-22T14:21:17;1.00;;;0.90;;
31336;SDS011;22846;42.654;23.314;2024-03-22T14:23:48;1.00;;;0.90;;
31336;SDS011;22846;42.654;23.314;2024-03-22T14:26:15;1.25;;;0.90;;